Denham Springs, LA

10:29 AM CDT on October 16, 2019 (GMT -0500)
Denham Springs | | Change Station

Elev 102 ft 30.58 °N, 90.91 °W | Updated 6 seconds ago

Overcast
Overcast
71.1 °F
Feels Like 71.1 °F
N
0
Wind Variable Wind from ESE
Gusts 1.0 mph

Today
High -- | Low -- °F
--% Chance of Precip.
Yesterday
High -- | Low -- °F
Precip. -- in
Pressure 29.99 in
Visibility 10.0 miles
Clouds Few 400 ft
Scattered Clouds 3000 ft
Mostly Cloudy 12000 ft
Dew Point 71 °F
Humidity 100%
Rainfall 1.45 in
Snow Depth Not available.
7:06 AM 6:31 PM
Waning Gibbous, 93% visible
METAR KBTR 161453Z 00000KT 10SM FEW004 SCT030 BKN120 22/20 A2999 RMK AO2 RAE26 SLP155 P0003 60037 T02170200 51025
Pressure 29.99 in
Visibility 10.0 miles
Clouds Few 400 ft
Scattered Clouds 3000 ft
Mostly Cloudy 12000 ft
Dew Point 71 °F
Humidity 100%
Rainfall 1.45 in
Snow Depth Not available.
7:06 AM 6:31 PM
Waning Gibbous, 93% visible
METAR KBTR 161453Z 00000KT 10SM FEW004 SCT030 BKN120 22/20 A2999 RMK AO2 RAE26 SLP155 P0003 60037 T02170200 51025

Get Severe Weather Alerts

Thanks for signing up!

Be on the lookout for a verification email in your inbox.

You'll start receiving the daily forecast at 6 AM.

×

10-Day Weather Forecast

Almanac

Astronomy

Oct. 16, 2019 Rise Set
Actual Time
Civil Twilight
Nautical Twilight
Astronomical Twilight
Moon
Length of Visible Light
Length of Day
Tomorrow will be .
, % of the Moon is Illuminated

Today's Extremes

State Highs State Lows

Community

WunderPhotos

Category 6

Welcome to Category 6. This is the collective home for Weather Underground's featured writeups by Dr. Jeff Masters (right), Bob Henson (left), Chris Burt, and other regular contributors.

Nearby

Air Quality

  Air Quality AQ Index Pollutant
Not available.

Snow Depth

Station Depth Elevation

Earthquake Activity

City Distance Mag. Time & Date
Minimum magnitude displayed is 2.5.

Coastal Water Temperatures

Place Temperature

Stations

Nearby Weather Stations

Station Location Temp. Windchill Dew Point Humidity Wind Precip. Elev Updated Type
                   

Watches & Warnings

There are currently no watches in effect.